Time;durP1;ratioP1;P1;durP2;ratioP2;P2;SDS_P1;SDS_P2;PMS_P1;PMS_P2;Temp;Humidity;BMP_temperature;BMP_pressure;BME280_temperature;BME280_humidity;BME280_pressure;Samples;Min_cycle;Max_cycle;Signal;HPM_P1;HPM_P2
2021/06/26 00:02:02;;;;;;;7.12;2.58;;;;;;;41.77;43.20;162221.22;1748216;81;21706;-82
2021/06/26 00:04:34;;;;;;;8.20;2.77;;;;;;;41.74;43.44;162214.47;1746354;82;21326;-81
2021/06/26 00:07:07;;;;;;;6.55;2.22;;;;;;;41.77;43.59;162221.22;1738953;82;21710;-82
2021/06/26 00:09:40;;;;;;;4.62;2.95;;;;;;;41.78;43.76;162225.23;1742489;82;21723;-81
2021/06/26 00:12:12;;;;;;;11.28;3.20;;;;;;;41.80;43.92;162230.61;1725951;82;21743;-81
2021/06/26 00:14:45;;;;;;;11.22;2.90;;;;;;;41.80;44.10;162229.23;1742702;82;21334;-83
2021/06/26 00:17:17;;;;;;;6.10;2.85;;;;;;;41.78;44.23;162223.91;1722322;82;21242;-81
2021/06/26 00:19:49;;;;;;;7.83;3.08;;;;;;;41.81;44.34;162136.92;1745076;82;21393;-81
2021/06/26 00:22:22;;;;;;;6.33;3.00;;;;;;;41.80;44.51;161863.84;1748178;82;21211;-84
2021/06/26 00:24:54;;;;;;;8.38;3.47;;;;;;;41.78;44.66;161583.62;1746523;82;21715;-82
2021/06/26 00:27:28;;;;;;;6.83;2.75;;;;;;;41.68;44.94;160849.86;1745489;81;21338;-82
2021/06/26 00:30:00;;;;;;;5.83;2.22;;;;;;;41.64;45.14;160244.61;1743312;81;21385;-82
2021/06/26 00:32:33;;;;;;;3.55;2.52;;;;;;;41.61;45.26;159927.03;1735829;82;21361;-82
2021/06/26 00:35:06;;;;;;;9.60;2.70;;;;;;;41.66;45.19;160314.19;1737434;82;21172;-83
2021/06/26 00:37:40;;;;;;;7.37;2.25;;;;;;;41.71;45.04;160792.13;1737787;82;21841;-83
2021/06/26 00:40:13;;;;;;;5.80;2.55;;;;;;;41.72;44.98;160996.41;1750267;82;22525;-82
2021/06/26 00:42:46;;;;;;;6.85;2.75;;;;;;;41.72;44.87;161275.38;1722473;81;21236;-81
2021/06/26 00:45:20;;;;;;;5.72;2.50;;;;;;;41.69;44.85;161315.66;1738670;82;21242;-84
2021/06/26 00:47:52;;;;;;;6.28;2.62;;;;;;;41.66;44.82;161392.27;1731060;82;21328;-84
2021/06/26 00:50:28;;;;;;;8.13;3.00;;;;;;;41.66;44.88;161326.53;1714830;81;21339;-84
2021/06/26 00:53:01;;;;;;;6.97;2.37;;;;;;;41.62;44.94;161155.13;1709940;83;21872;-83
2021/06/26 00:55:33;;;;;;;3.67;2.52;;;;;;;41.56;44.98;161076.33;1742042;80;21314;-84
2021/06/26 00:58:05;;;;;;;4.08;2.25;;;;;;;41.48;45.04;160844.75;1746915;80;21904;-83
2021/06/26 01:00:38;;;;;;;5.22;2.77;;;;;;;41.41;45.15;160591.05;1748237;80;21260;-83
2021/06/26 01:03:10;;;;;;;11.22;3.30;;;;;;;41.35;45.19;160513.75;1722718;82;21215;-83
2021/06/26 01:05:42;;;;;;;5.05;2.58;;;;;;;41.34;45.21;160588.36;1722418;82;21171;-84
2021/06/26 01:08:15;;;;;;;7.55;3.08;;;;;;;41.34;45.17;160728.52;1743200;82;21258;-83
2021/06/26 01:10:48;;;;;;;5.30;2.50;;;;;;;41.40;45.00;161130.13;1741734;82;21168;-83
2021/06/26 01:13:21;;;;;;;6.00;2.55;;;;;;;41.38;44.99;161199.25;1720839;83;21200;-83
2021/06/26 01:15:53;;;;;;;7.45;2.58;;;;;;;41.34;45.09;160973.91;1722080;82;21267;-85
2021/06/26 01:22:20;;;;;;;3.80;2.35;;;;;;;41.35;45.06;161074.31;1728012;80;21365;-83
2021/06/26 01:24:53;;;;;;;7.53;2.35;;;;;;;41.30;45.18;160833.19;1694460;83;21691;-83
2021/06/26 01:27:26;;;;;;;4.85;2.50;;;;;;;41.24;45.20;160713.59;1696019;84;21345;-81
2021/06/26 01:29:58;;;;;;;8.50;2.30;;;;;;;41.21;45.18;160813.70;1727950;83;21310;-81
2021/06/26 01:32:30;;;;;;;8.25;2.37;;;;;;;41.19;44.91;161561.70;1737470;81;21953;-81
2021/06/26 01:35:04;;;;;;;6.62;2.50;;;;;;;41.09;44.75;161857.47;1713148;82;21354;-81
2021/06/26 01:37:41;;;;;;;6.62;2.25;;;;;;;41.13;44.32;162050.62;1737521;81;21371;-82
2021/06/26 01:40:19;;;;;;;6.62;2.22;;;;;;;41.10;44.12;162042.55;1741428;81;21263;-82
2021/06/26 01:42:52;;;;;;;4.75;2.00;;;;;;;41.06;43.99;162030.48;1713321;82;21321;-80
2021/06/26 01:45:25;;;;;;;6.33;2.27;;;;;;;41.06;43.83;162031.80;1740557;82;21275;-80
2021/06/26 01:47:59;;;;;;;3.15;1.85;;;;;;;41.07;43.68;162033.17;1726895;82;21868;-80
2021/06/26 01:50:31;;;;;;;4.60;2.10;;;;;;;40.97;43.70;162006.33;1730974;82;21195;-80
2021/06/26 01:53:04;;;;;;;4.67;1.92;;;;;;;40.97;43.66;162006.33;1708297;84;21372;-80
2021/06/26 01:55:38;;;;;;;4.17;1.85;;;;;;;40.98;43.40;162008.97;1727357;81;21317;-81
2021/06/26 01:58:10;;;;;;;4.45;1.87;;;;;;;40.98;43.30;162010.34;1743275;81;21930;-80
2021/06/26 02:00:42;;;;;;;3.37;1.87;;;;;;;40.92;43.28;161994.20;1768977;80;21171;-81
2021/06/26 02:03:14;;;;;;;4.03;1.80;;;;;;;40.94;43.24;161999.58;1736377;81;21702;-80
2021/06/26 02:05:48;;;;;;;4.15;2.05;;;;;;;40.92;43.24;161994.20;1761634;81;21286;-82
2021/06/26 02:08:20;;;;;;;4.50;2.25;;;;;;;40.97;43.15;162006.33;1751932;81;21777;-81
2021/06/26 02:10:52;;;;;;;5.47;2.77;;;;;;;40.84;43.36;161970.06;1745230;81;21278;-81
2021/06/26 02:13:25;;;;;;;10.43;2.30;;;;;;;40.84;43.36;161970.06;1747335;81;21183;-81
2021/06/26 02:15:58;;;;;;;7.28;1.90;;;;;;;40.87;43.29;161979.44;1764142;80;21286;-81
2021/06/26 02:18:33;;;;;;;3.17;1.82;;;;;;;40.87;43.32;161978.13;1763957;81;21321;-81
2021/06/26 02:21:06;;;;;;;2.87;2.10;;;;;;;40.86;43.42;161976.75;1760303;80;21305;-82
2021/06/26 02:23:39;;;;;;;5.45;2.52;;;;;;;40.80;43.58;161959.36;1761016;80;21265;-81
2021/06/26 02:26:12;;;;;;;6.05;2.02;;;;;;;40.72;43.79;161939.16;1764126;80;21178;-81
2021/06/26 02:28:44;;;;;;;6.25;2.45;;;;;;;40.74;43.83;161943.17;1763843;81;21210;-81
2021/06/26 02:31:16;;;;;;;5.78;2.10;;;;;;;40.74;43.83;161943.17;1762106;81;21693;-81
2021/06/26 02:33:49;;;;;;;6.35;3.05;;;;;;;40.75;43.88;161947.23;1748197;81;21884;-81
2021/06/26 02:36:21;;;;;;;5.17;2.20;;;;;;;40.70;44.13;161933.78;1750418;82;21357;-80
2021/06/26 02:38:55;;;;;;;9.85;2.62;;;;;;;40.66;44.24;161921.72;1750545;80;21263;-81
2021/06/26 02:41:28;;;;;;;6.25;2.50;;;;;;;40.64;44.44;161917.66;1739226;82;21853;-81
2021/06/26 02:44:00;;;;;;;3.75;2.40;;;;;;;40.64;44.50;161917.66;1738710;82;21338;-81
2021/06/26 02:46:33;;;;;;;4.28;2.50;;;;;;;40.66;44.47;161921.72;1746261;82;21350;-81
2021/06/26 02:49:06;;;;;;;4.20;2.12;;;;;;;40.65;44.52;161919.03;1742698;82;21850;-81
2021/06/26 02:51:38;;;;;;;7.17;3.37;;;;;;;40.64;44.62;161917.66;1747136;82;21212;-81
2021/06/26 02:54:10;;;;;;;5.08;2.72;;;;;;;40.64;44.69;161897.38;1723168;82;21349;-81
2021/06/26 02:56:43;;;;;;;9.60;2.25;;;;;;;40.64;44.77;161830.27;1735658;82;21405;-82
2021/06/26 02:59:15;;;;;;;7.80;2.42;;;;;;;40.61;44.92;161555.17;1746900;80;21374;-81
2021/06/26 03:01:48;;;;;;;9.43;3.45;;;;;;;40.60;45.11;161212.75;1748190;80;21757;-81
2021/06/26 03:04:20;;;;;;;2.25;1.85;;;;;;;40.55;45.21;160984.89;1726630;82;21864;-80
2021/06/26 03:06:52;;;;;;;5.42;2.72;;;;;;;40.55;45.29;160771.98;1737604;82;21349;-81
2021/06/26 03:09:26;;;;;;;4.08;2.35;;;;;;;40.54;45.51;160155.64;1750529;82;21346;-81
2021/06/26 03:11:58;;;;;;;5.90;2.80;;;;;;;40.53;45.58;159944.34;1749581;82;21163;-81
2021/06/26 03:14:30;;;;;;;6.47;2.40;;;;;;;40.44;45.93;158731.30;1729964;82;21824;-77
2021/06/26 03:17:03;;;;;;;9.45;3.80;;;;;;;40.39;46.08;158179.13;1749808;82;21219;-81
2021/06/26 03:19:36;;;;;;;6.95;2.58;;;;;;;40.38;46.31;157186.05;1750045;81;21230;-81
2021/06/26 03:22:08;;;;;;;5.78;2.60;;;;;;;40.31;46.68;155206.78;1743125;82;21278;-81
2021/06/26 03:24:41;;;;;;;6.20;2.27;;;;;;;40.36;46.79;154732.30;1744900;80;21295;-81
2021/06/26 03:27:15;;;;;;;13.85;3.55;;;;;;;40.47;46.55;156287.59;1719236;82;21223;-81
2021/06/26 03:29:48;;;;;;;3.98;2.30;;;;;;;40.65;46.53;156616.98;1740465;80;21192;-81
2021/06/26 03:44:00;;;;;;;6.45;2.60;;;;;;;40.20;48.77;161799.55;1874059;76;27967;-89
2021/06/26 03:46:34;;;;;;;9.43;2.87;;;;;;;40.18;48.78;140882.81;1779786;80;21368;-89
2021/06/26 03:49:07;;;;;;;6.20;2.95;;;;;;;40.26;48.60;142817.94;1811603;79;21198;-85
2021/06/26 03:51:40;;;;;;;7.67;2.85;;;;;;;40.32;48.39;144639.77;1789517;79;21337;-84
2021/06/26 03:54:13;;;;;;;9.90;3.35;;;;;;;40.33;48.32;145180.84;1767389;80;21158;-84
2021/06/26 03:56:45;;;;;;;6.83;3.05;;;;;;;40.31;48.57;143338.86;1773508;81;21341;-86
2021/06/26 03:59:17;;;;;;;9.83;3.33;;;;;;;40.35;48.67;142798.92;1739027;82;21850;-86
2021/06/26 04:01:50;;;;;;;7.03;3.62;;;;;;;40.31;48.75;142484.58;1744932;80;21206;-86
2021/06/26 04:04:23;;;;;;;7.28;2.90;;;;;;;40.27;48.88;141801.17;1742853;79;21142;-86
2021/06/26 04:06:55;;;;;;;5.70;3.20;;;;;;;40.30;48.74;143071.33;1817609;79;21312;-86
2021/06/26 04:09:28;;;;;;;7.05;2.62;;;;;;;40.29;48.80;142979.03;1817578;79;21831;-86
2021/06/26 04:12:00;;;;;;;8.45;3.20;;;;;;;40.32;48.75;143273.34;1817374;79;21849;-86
2021/06/26 04:14:32;;;;;;;6.62;2.80;;;;;;;40.29;48.85;142662.58;1799290;79;21313;-85
2021/06/26 04:17:05;;;;;;;5.62;3.33;;;;;;;40.32;49.08;140825.66;1779743;80;21384;-86
2021/06/26 04:19:37;;;;;;;7.87;3.45;;;;;;;40.44;49.10;141227.50;1779816;80;21771;-85
2021/06/26 04:22:09;;;;;;;9.95;3.15;;;;;;;40.46;49.24;140299.94;1771683;80;21202;-88
2021/06/26 04:24:41;;;;;;;4.65;2.70;;;;;;;40.44;49.38;139279.23;1779667;80;21403;-86
2021/06/26 04:27:14;;;;;;;8.58;3.15;;;;;;;40.44;49.48;138521.69;1768790;80;21215;-88
2021/06/26 04:29:46;;;;;;;6.00;2.85;;;;;;;40.46;49.53;138336.45;1810358;79;21441;-88
2021/06/26 04:32:19;;;;;;;6.08;3.50;;;;;;;40.45;49.52;138451.56;1809646;79;21851;-87
2021/06/26 04:34:51;;;;;;;9.08;3.50;;;;;;;40.50;49.51;139048.45;1806475;79;21316;-87
2021/06/26 04:37:24;;;;;;;8.30;3.15;;;;;;;40.52;49.46;139487.58;1806454;79;21619;-89
2021/06/26 04:39:56;;;;;;;6.58;3.75;;;;;;;40.55;49.63;138100.33;1780068;79;21679;-86
2021/06/26 04:42:28;;;;;;;6.15;3.30;;;;;;;40.62;49.65;138209.13;1779901;80;21353;-88
2021/06/26 04:45:01;;;;;;;8.03;3.62;;;;;;;40.69;49.39;140533.28;1765804;80;21187;-89
2021/06/26 04:47:34;;;;;;;5.83;3.47;;;;;;;40.70;49.39;140489.20;1791264;80;21237;-88
2021/06/26 04:50:08;;;;;;;11.38;3.75;;;;;;;40.70;49.39;140727.31;1769112;80;21175;-89
2021/06/26 04:52:42;;;;;;;3.67;3.02;;;;;;;40.72;49.40;140564.94;1785064;80;21178;-89
2021/06/26 04:55:15;;;;;;;5.10;3.42;;;;;;;40.75;49.45;140272.02;1790617;80;22408;-88
2021/06/26 04:57:47;;;;;;;7.28;3.05;;;;;;;40.79;49.49;139972.09;1767554;80;21206;-88
2021/06/26 05:00:21;;;;;;;5.05;3.52;;;;;;;40.80;49.45;140411.30;1763523;80;21217;-89
2021/06/26 05:02:53;;;;;;;7.15;3.25;;;;;;;40.81;49.73;138259.94;1760881;80;21248;-87
2021/06/26 05:05:25;;;;;;;6.22;3.00;;;;;;;40.91;49.67;139110.52;1761134;80;21301;-88
2021/06/26 05:07:58;;;;;;;8.40;3.30;;;;;;;40.94;49.55;140114.25;1772620;80;21804;-86
2021/06/26 05:10:30;;;;;;;6.70;3.55;;;;;;;40.86;50.02;136384.63;1755144;81;21242;-84
2021/06/26 05:13:04;;;;;;;10.28;3.40;;;;;;;41.10;49.92;137958.02;1757496;80;21281;-85
2021/06/26 05:15:37;;;;;;;24.95;4.17;;;;;;;40.96;50.30;134426.02;1768490;81;21179;-85
2021/06/26 05:18:10;;;;;;;7.15;3.77;;;;;;;40.99;50.26;134873.09;1771877;80;21295;-85
2021/06/26 05:20:44;;;;;;;5.78;3.47;;;;;;;40.97;50.37;134226.91;1771707;80;21363;-86
2021/06/26 05:23:25;;;;;;;8.00;3.02;;;;;;;41.00;50.65;131747.47;1770541;80;21179;-85
2021/06/26 05:25:52;;;;;;;6.25;3.62;;;;;;;41.03;50.86;129990.31;1758577;80;21186;-89
2021/06/26 05:28:25;;;;;;;9.75;3.80;;;;;;;41.10;50.88;130525.98;1760084;80;21326;-89
2021/06/26 05:30:57;;;;;;;5.85;3.50;;;;;;;41.22;50.93;130207.84;1756633;80;21352;-87
2021/06/26 05:33:29;;;;;;;7.75;3.60;;;;;;;41.29;51.47;125580.68;1770256;80;21363;-86
2021/06/26 05:36:01;;;;;;;10.38;4.35;;;;;;;41.33;51.97;121606.98;1782635;80;21357;-86
2021/06/26 05:38:34;;;;;;;7.75;4.20;;;;;;;41.38;52.06;121428.31;1760363;80;21371;-87
2021/06/26 05:41:07;;;;;;;6.92;3.83;;;;;;;41.50;51.99;122460.79;1754856;82;21324;-88
2021/06/26 05:43:40;;;;;;;6.72;3.83;;;;;;;41.61;51.89;123653.83;1760157;81;21365;-90
2021/06/26 05:46:12;;;;;;;6.20;3.50;;;;;;;41.65;51.70;125148.44;1781151;80;21763;-88
2021/06/26 05:48:45;;;;;;;9.23;3.85;;;;;;;41.62;51.90;123548.91;1781693;80;21304;-86
2021/06/26 05:51:18;;;;;;;5.55;3.40;;;;;;;41.67;52.08;122241.02;1769386;80;21368;-84
2021/06/26 05:53:50;;;;;;;6.10;4.08;;;;;;;41.73;52.11;122112.52;1765440;80;21328;-88
2021/06/26 05:56:23;;;;;;;29.95;21.48;;;;;;;41.77;52.03;122940.64;1777523;80;21326;-87
2021/06/26 05:58:56;;;;;;;11.20;8.68;;;;;;;41.83;52.11;122209.81;1777236;81;21363;-85
2021/06/26 06:01:29;;;;;;;11.80;5.90;;;;;;;41.88;51.98;123743.05;1761836;80;21166;-84
2021/06/26 06:04:03;;;;;;;13.62;5.03;;;;;;;41.96;51.78;125590.02;1800111;78;21234;-85
2021/06/26 06:06:38;;;;;;;12.78;5.20;;;;;;;41.98;51.69;126014.95;1789732;78;21347;-86
2021/06/26 06:09:30;;;;;;;7.17;4.50;;;;;;;41.94;52.07;123040.92;1782377;79;21803;-85
2021/06/26 06:12:56;;;;;;;12.28;4.55;;;;;;;42.12;51.80;125420.69;1793589;79;21182;-86
2021/06/26 06:15:48;;;;;;;9.53;3.90;;;;;;;42.07;52.23;121946.73;1784194;79;21224;-86
2021/06/26 06:18:31;;;;;;;12.93;4.80;;;;;;;42.22;52.24;122289.87;1766453;80;21324;-89
2021/06/26 06:21:07;;;;;;;11.60;4.65;;;;;;;42.08;53.16;114624.63;1763838;80;21193;-87
2021/06/26 06:23:39;;;;;;;12.33;4.05;;;;;;;42.12;53.21;114874.20;1760298;81;21367;-82
2021/06/26 06:26:13;;;;;;;6.42;4.20;;;;;;;42.17;53.20;115245.03;1761304;81;21324;-84
2021/06/26 06:28:45;;;;;;;12.20;4.17;;;;;;;42.17;53.14;115969.17;1784825;80;21795;-83
2021/06/26 06:31:18;;;;;;;5.60;4.05;;;;;;;42.22;53.04;116650.23;1792060;80;21370;-83
2021/06/26 06:33:50;;;;;;;5.60;4.10;;;;;;;42.28;53.16;116062.52;1769822;80;21347;-85
2021/06/26 06:36:22;;;;;;;4.95;3.80;;;;;;;42.42;53.03;116948.95;1779961;80;21768;-85
2021/06/26 06:38:54;;;;;;;5.80;3.87;;;;;;;42.52;52.86;118627.91;1757782;81;21208;-85
2021/06/26 06:41:27;;;;;;;7.97;4.42;;;;;;;42.57;52.86;118796.74;1757528;81;21193;-85
2021/06/26 06:44:00;;;;;;;7.67;4.37;;;;;;;42.59;52.71;119899.22;1760655;80;21173;-87
2021/06/26 06:46:32;;;;;;;9.90;4.80;;;;;;;42.70;52.49;121751.77;1784247;80;21203;-86
2021/06/26 06:49:05;;;;;;;6.65;4.70;;;;;;;42.67;52.18;123686.51;1768260;80;21350;-86
2021/06/26 06:51:39;;;;;;;7.80;4.35;;;;;;;42.85;51.81;126923.34;1772349;80;21800;-86
2021/06/26 06:54:11;;;;;;;7.83;4.25;;;;;;;42.92;51.65;127814.94;1755135;82;21371;-85
2021/06/26 06:56:43;;;;;;;9.30;4.03;;;;;;;42.75;52.11;123727.53;1773135;80;21214;-84
2021/06/26 06:59:15;;;;;;;10.78;4.05;;;;;;;42.77;52.20;123345.43;1786273;80;21225;-85
2021/06/26 07:01:49;;;;;;;7.50;3.98;;;;;;;42.84;51.90;126119.23;1783815;80;21308;-85
2021/06/26 07:04:21;;;;;;;10.95;4.12;;;;;;;42.83;51.74;126879.57;1781111;80;21312;-84
2021/06/26 07:06:55;;;;;;;10.93;4.72;;;;;;;43.05;51.38;129926.06;1755192;81;21175;-85
2021/06/26 07:09:27;;;;;;;8.53;4.03;;;;;;;43.06;51.38;129791.73;1774872;80;21463;-85
2021/06/26 07:12:00;;;;;;;7.47;4.30;;;;;;;43.13;51.23;131186.08;1786148;80;21328;-83
2021/06/26 07:14:33;;;;;;;10.20;3.77;;;;;;;43.17;51.48;128747.19;1763385;80;21705;-82
2021/06/26 07:17:05;;;;;;;8.70;4.05;;;;;;;43.10;51.52;128514.56;1755094;82;21253;-83
2021/06/26 07:19:38;;;;;;;8.43;4.65;;;;;;;43.13;51.65;127046.66;1723675;82;22017;-84
2021/06/26 07:22:10;;;;;;;8.48;4.25;;;;;;;43.28;51.67;127279.86;1755371;80;21395;-83
2021/06/26 07:24:42;;;;;;;7.53;3.98;;;;;;;43.36;51.82;125998.66;1755256;82;21356;-84
2021/06/26 07:27:15;;;;;;;7.33;4.53;;;;;;;43.45;51.77;126659.77;1764412;80;21276;-87
2021/06/26 07:29:59;;;;;;;6.08;4.10;;;;;;;43.57;51.32;130070.97;1767310;80;21379;-85
2021/06/26 07:32:46;;;;;;;14.28;10.68;;;;;;;43.61;51.23;130633.48;1760521;80;21961;-86
2021/06/26 07:35:40;;;;;;;10.72;8.40;;;;;;;43.57;51.52;128146.70;1762988;80;21827;-87
2021/06/26 07:38:34;;;;;;;17.00;6.90;;;;;;;43.58;51.59;127466.44;1760790;80;21371;-85
2021/06/26 07:41:16;;;;;;;13.10;5.17;;;;;;;43.61;52.65;119700.70;1761564;80;21221;-86
2021/06/26 07:43:51;;;;;;;12.60;4.90;;;;;;;43.60;52.84;118513.59;1759118;80;21182;-85
2021/06/26 07:46:23;;;;;;;9.30;4.78;;;;;;;43.65;52.91;118179.22;1756927;80;21261;-85
2021/06/26 07:49:09;;;;;;;12.90;4.75;;;;;;;43.74;52.62;120939.31;1764033;80;21853;-85
2021/06/26 07:51:47;;;;;;;;;;;;;;;43.82;52.10;124435.37;1774402;80;22571;-87
2021/06/26 07:54:24;;;;;;;8.88;4.47;;;;;;;43.60;52.91;117515.11;1765153;80;20603;-85
2021/06/26 07:57:03;;;;;;;6.72;3.98;;;;;;;43.80;52.42;122401.05;1770253;80;21412;-84
2021/06/26 07:59:47;;;;;;;6.05;4.35;;;;;;;43.89;52.01;125204.05;1770178;80;21933;-88
2021/06/26 08:02:19;;;;;;;5.40;4.17;;;;;;;43.91;51.93;125648.02;1759838;80;21292;-83
2021/06/26 08:04:52;;;;;;;6.40;4.15;;;;;;;43.95;51.84;126343.09;1764304;80;21185;-84
2021/06/26 08:07:25;;;;;;;11.38;4.40;;;;;;;43.96;52.04;124528.08;1755237;80;21379;-85
2021/06/26 08:09:58;;;;;;;10.80;4.65;;;;;;;44.00;51.86;125877.23;1759372;80;21327;-86
2021/06/26 08:12:32;;;;;;;11.97;5.05;;;;;;;44.13;51.40;129424.88;1755810;80;21351;-89
2021/06/26 08:15:08;;;;;;;6.62;4.58;;;;;;;44.15;51.38;129227.50;1758379;80;21414;-89
2021/06/26 08:17:41;;;;;;;14.68;5.00;;;;;;;44.16;51.76;126018.41;1757325;80;21280;-92
2021/06/26 08:20:14;;;;;;;9.15;4.47;;;;;;;44.19;51.90;125094.84;1765194;80;21249;-85
2021/06/26 08:22:47;;;;;;;8.53;5.12;;;;;;;44.30;51.79;126218.66;1765197;80;21170;-86
2021/06/26 08:25:19;;;;;;;8.38;5.20;;;;;;;44.34;51.88;125594.02;1764297;80;21799;-87
2021/06/26 08:27:53;;;;;;;10.15;5.33;;;;;;;44.39;52.13;123561.02;1765647;80;21217;-84
2021/06/26 08:30:26;;;;;;;6.60;4.92;;;;;;;44.44;52.40;121468.91;1757855;80;21418;-84
2021/06/26 08:32:58;;;;;;;15.28;4.40;;;;;;;44.47;52.21;123320.34;1757013;80;21379;-86
2021/06/26 08:35:31;;;;;;;6.50;4.17;;;;;;;44.54;52.14;123461.97;1764804;80;21308;-87
2021/06/26 08:38:04;;;;;;;6.58;4.65;;;;;;;44.54;52.29;122666.67;1759631;80;21281;-85
2021/06/26 08:40:36;;;;;;;7.20;4.42;;;;;;;44.59;52.32;122169.67;1756063;80;21876;-87
2021/06/26 08:43:09;;;;;;;8.85;4.42;;;;;;;44.71;52.32;122406.41;1761730;80;21356;-85
2021/06/26 08:45:43;;;;;;;7.35;4.55;;;;;;;44.72;52.87;117627.75;1762553;80;21234;-84
2021/06/26 08:48:15;;;;;;;10.25;4.50;;;;;;;44.80;52.90;118330.86;1766048;80;21206;-87
2021/06/26 08:50:49;;;;;;;8.80;4.72;;;;;;;44.86;53.03;116899.34;1756694;80;21189;-86
2021/06/26 08:53:28;;;;;;;5.47;4.20;;;;;;;44.92;53.27;115133.22;1759507;80;21684;-83
2021/06/26 08:56:08;;;;;;;7.58;4.60;;;;;;;45.02;53.49;113595.52;1765428;80;21575;-87
2021/06/26 08:58:41;;;;;;;10.70;4.72;;;;;;;45.09;53.41;114366.76;1759143;80;21159;-85
2021/06/26 09:01:14;;;;;;;8.75;4.10;;;;;;;45.14;52.94;118234.87;1757076;80;21279;-84
2021/06/26 09:03:48;;;;;;;13.78;4.45;;;;;;;45.22;52.17;123620.72;1756038;80;21422;-87
2021/06/26 09:06:20;;;;;;;9.25;4.42;;;;;;;45.29;51.42;128990.17;1752816;80;21260;-84
2021/06/26 09:08:52;;;;;;;5.62;4.45;;;;;;;45.34;50.77;133662.28;1757398;80;21186;-83
2021/06/26 09:11:25;;;;;;;12.00;4.90;;;;;;;45.38;50.69;133751.37;1758362;80;21206;-84
2021/06/26 09:13:58;;;;;;;8.83;5.05;;;;;;;45.47;50.53;134792.75;1753715;80;21355;-86
2021/06/26 09:16:33;;;;;;;20.55;5.55;;;;;;;45.56;50.32;135962.80;1754946;80;21233;-85
2021/06/26 09:19:09;;;;;;;7.20;4.55;;;;;;;45.59;50.52;134271.88;1773789;80;21250;-88
2021/06/26 09:21:43;;;;;;;7.17;4.65;;;;;;;45.65;50.69;132911.22;1758269;80;21838;-83
2021/06/26 09:24:17;;;;;;;7.33;4.20;;;;;;;45.70;50.49;134761.80;1760679;80;21230;-85
2021/06/26 09:27:00;;;;;;;8.93;4.35;;;;;;;45.74;50.07;137597.69;1757857;80;21364;-85
2021/06/26 09:29:34;;;;;;;8.20;4.80;;;;;;;45.72;50.22;136109.31;1758762;80;21935;-85
2021/06/26 09:32:11;;;;;;;13.35;4.25;;;;;;;45.73;50.43;134314.91;1758473;80;21411;-82
2021/06/26 09:34:45;;;;;;;7.33;4.37;;;;;;;45.76;50.55;133352.64;1758397;80;21368;-83
2021/06/26 09:37:31;;;;;;;8.08;4.50;;;;;;;45.79;50.92;130687.12;1768892;80;21403;-82
2021/06/26 09:40:06;;;;;;;13.78;4.55;;;;;;;45.78;51.38;127235.09;1765418;80;21238;-82
2021/06/26 09:42:40;;;;;;;8.93;5.12;;;;;;;45.83;51.33;127854.98;1761774;80;21230;-81
2021/06/26 09:45:15;;;;;;;9.70;4.60;;;;;;;45.92;50.97;130909.82;1766375;80;21930;-83
2021/06/26 09:47:48;;;;;;;6.47;4.70;;;;;;;45.99;51.13;128924.25;1757413;80;21248;-81
2021/06/26 09:50:24;;;;;;;8.28;4.60;;;;;;;45.96;51.66;125058.45;1746594;80;21688;-83
2021/06/26 09:53:00;;;;;;;10.72;5.12;;;;;;;46.06;51.70;125042.72;1741590;80;21221;-86
2021/06/26 09:55:40;;;;;;;8.98;5.33;;;;;;;46.18;51.32;127971.76;1742988;80;21316;-83
2021/06/26 09:58:18;;;;;;;9.53;5.12;;;;;;;46.25;51.15;128856.01;1739183;80;22399;-82
2021/06/26 10:00:51;;;;;;;11.10;4.90;;;;;;;46.35;50.77;131731.06;1738874;80;21439;-84
2021/06/26 10:03:25;;;;;;;14.20;4.87;;;;;;;46.51;50.08;136596.78;1741455;81;21893;-85
2021/06/26 10:06:01;;;;;;;10.95;4.37;;;;;;;46.41;49.59;139715.50;1733062;80;21366;-85
2021/06/26 10:08:36;;;;;;;5.17;3.83;;;;;;;46.71;49.33;141269.33;1737566;81;21375;-85
2021/06/26 10:11:12;;;;;;;7.05;4.10;;;;;;;46.88;49.63;138776.91;1742938;80;21327;-84
2021/06/26 10:13:49;;;;;;;6.55;4.08;;;;;;;46.91;49.17;141998.39;1742396;80;21463;-85
2021/06/26 10:16:24;;;;;;;8.23;4.80;;;;;;;47.11;48.33;147047.28;1748356;80;21339;-86
2021/06/26 10:19:03;;;;;;;6.25;3.83;;;;;;;47.26;47.56;151242.28;1745098;80;21439;-86
2021/06/26 10:21:37;;;;;;;7.72;4.12;;;;;;;47.44;46.87;154753.11;1738098;81;21371;-83
2021/06/26 10:24:13;;;;;;;7.30;3.98;;;;;;;47.35;46.30;157260.63;1737384;80;21370;-85
2021/06/26 10:26:48;;;;;;;8.95;4.05;;;;;;;47.50;45.07;161743.14;1735467;80;21196;-85
2021/06/26 10:29:32;;;;;;;6.65;3.70;;;;;;;47.51;45.41;160293.30;1742790;80;21396;-83
2021/06/26 10:32:15;;;;;;;7.87;4.20;;;;;;;47.73;44.93;161826.53;1736794;80;21878;-83
2021/06/26 10:34:50;;;;;;;7.03;4.00;;;;;;;47.70;43.97;163629.13;1748534;80;21838;-85
2021/06/26 10:37:26;;;;;;;6.20;4.90;;;;;;;47.72;44.16;163314.23;1739715;80;21316;-85
2021/06/26 10:40:09;;;;;;;4.70;3.77;;;;;;;48.08;43.64;163929.30;1737710;80;21885;-81
2021/06/26 10:42:41;;;;;;;4.95;4.22;;;;;;;48.15;43.67;163949.47;1735595;81;21209;-84
2021/06/26 10:45:27;;;;;;;11.22;3.95;;;;;;;48.11;44.08;163219.44;1738457;80;21229;-84
2021/06/26 10:48:00;;;;;;;11.10;3.92;;;;;;;48.13;44.15;163136.31;1737771;80;21749;-83
2021/06/26 10:50:33;;;;;;;8.03;3.95;;;;;;;48.20;44.15;163059.13;1751635;80;21368;-83
2021/06/26 10:53:08;;;;;;;9.65;4.22;;;;;;;48.45;43.72;163789.62;1706488;80;21167;-85
2021/06/26 10:55:41;;;;;;;11.22;3.62;;;;;;;48.51;43.44;164030.47;1763711;80;21923;-82
2021/06/26 10:58:14;;;;;;;15.40;4.45;;;;;;;48.54;43.50;163917.36;1759293;80;21831;-79
2021/06/26 11:00:47;;;;;;;8.80;3.85;;;;;;;48.46;43.48;163903.16;1762962;80;21399;-82
2021/06/26 11:03:26;;;;;;;6.53;3.92;;;;;;;48.62;43.10;164076.28;1758750;80;21190;-80
2021/06/26 11:06:00;;;;;;;6.20;3.47;;;;;;;48.86;42.54;164140.98;1761984;80;21281;-81
2021/06/26 11:08:33;;;;;;;7.35;4.15;;;;;;;49.05;42.26;164193.64;1758733;80;21355;-81
2021/06/26 11:11:07;;;;;;;5.00;3.70;;;;;;;49.11;42.37;164208.47;1765318;80;21266;-81
2021/06/26 11:13:45;;;;;;;6.10;4.78;;;;;;;49.17;41.98;164226.00;1761626;80;21217;-83
2021/06/26 11:16:19;;;;;;;13.62;8.58;;;;;;;49.46;41.74;164304.30;1755629;80;21253;-81
2021/06/26 11:19:02;;;;;;;8.00;5.50;;;;;;;49.28;42.10;164255.72;1763212;80;21167;-79
2021/06/26 11:21:48;;;;;;;6.95;4.22;;;;;;;49.35;41.64;164274.62;1760394;80;21234;-81
2021/06/26 11:24:42;;;;;;;6.72;4.40;;;;;;;49.24;41.30;164243.59;1761650;80;21301;-79
2021/06/26 11:27:20;;;;;;;9.85;3.85;;;;;;;49.35;40.43;164273.25;1762184;80;21760;-80
2021/06/26 11:30:01;;;;;;;9.18;4.15;;;;;;;49.19;39.68;164231.41;1758665;80;21728;-80
2021/06/26 11:32:36;;;;;;;10.35;4.15;;;;;;;49.14;39.88;164216.56;1768721;80;21396;-81
2021/06/26 11:35:15;;;;;;;6.42;4.15;;;;;;;49.02;40.13;164184.20;1763590;80;21312;-79
2021/06/26 11:37:51;;;;;;;6.10;4.10;;;;;;;48.96;40.23;164169.38;1766058;80;21419;-79
2021/06/26 11:40:26;;;;;;;9.50;4.00;;;;;;;48.86;40.59;164142.38;1760588;80;21335;-79
2021/06/26 11:43:05;;;;;;;8.53;4.15;;;;;;;48.86;40.43;164140.98;1759973;80;21375;-79
2021/06/26 11:45:44;;;;;;;5.75;4.15;;;;;;;48.81;40.12;164127.53;1760157;80;21815;-78
2021/06/26 11:48:20;;;;;;;6.28;3.65;;;;;;;48.68;40.00;164091.09;1764090;80;21340;-79
2021/06/26 11:51:09;;;;;;;5.58;3.58;;;;;;;48.67;39.68;164088.45;1763250;80;21836;-79
2021/06/26 11:53:51;;;;;;;7.03;3.47;;;;;;;48.61;39.44;164073.63;1770136;80;21327;-79
2021/06/26 11:56:26;;;;;;;5.28;4.05;;;;;;;48.55;39.52;164057.38;1749728;81;21364;-80
2021/06/26 11:59:01;;;;;;;7.03;3.52;;;;;;;48.45;39.60;164030.41;1762439;80;21162;-80
2021/06/26 12:01:36;;;;;;;4.65;3.25;;;;;;;48.39;39.54;164014.22;1748961;80;21408;-79
2021/06/26 12:04:31;;;;;;;9.53;3.90;;;;;;;48.25;39.64;163976.52;1786662;79;21221;-80
2021/06/26 12:07:12;;;;;;;7.00;3.85;;;;;;;48.21;39.74;163965.72;1778574;79;21341;-80
2021/06/26 12:09:54;;;;;;;5.70;3.15;;;;;;;48.12;39.91;163940.05;1783147;79;21744;-79
2021/06/26 12:12:46;;;;;;;9.58;3.80;;;;;;;48.06;40.02;163925.22;1783797;78;21351;-80
2021/06/26 12:15:19;;;;;;;5.53;3.12;;;;;;;47.98;40.33;163903.67;1783998;79;21170;-79